sensor_id;sensor_type;location;lat;lon;timestamp;temperature;humidity
26952;DHT22;14507;52.418;13.398;2024-01-30T00:01:55;3.00;99.90
26952;DHT22;14507;52.418;13.398;2024-01-30T00:04:21;2.10;99.90
26952;DHT22;14507;52.418;13.398;2024-01-30T00:06:46;2.40;99.90
26952;DHT22;14507;52.418;13.398;2024-01-30T00:09:12;2.40;99.90
26952;DHT22;14507;52.418;13.398;2024-01-30T00:11:38;2.00;99.90
26952;DHT22;14507;52.418;13.398;2024-01-30T00:14:04;2.00;99.90
26952;DHT22;14507;52.418;13.398;2024-01-30T00:16:30;2.00;99.90
26952;DHT22;14507;52.418;13.398;2024-01-30T00:18:56;2.90;99.90
26952;DHT22;14507;52.418;13.398;2024-01-30T00:21:22;2.30;99.90
26952;DHT22;14507;52.418;13.398;2024-01-30T00:23:48;2.30;99.90
26952;DHT22;14507;52.418;13.398;2024-01-30T00:26:14;2.20;99.90
26952;DHT22;14507;52.418;13.398;2024-01-30T00:28:42;2.40;99.90
26952;DHT22;14507;52.418;13.398;2024-01-30T00:31:08;2.90;99.90
26952;DHT22;14507;52.418;13.398;2024-01-30T00:33:40;2.00;99.90
26952;DHT22;14507;52.418;13.398;2024-01-30T00:36:07;1.90;99.90
26952;DHT22;14507;52.418;13.398;2024-01-30T00:38:32;1.90;99.90
26952;DHT22;14507;52.418;13.398;2024-01-30T00:40:58;2.20;99.90
26952;DHT22;14507;52.418;13.398;2024-01-30T00:43:24;1.90;99.90
26952;DHT22;14507;52.418;13.398;2024-01-30T00:45:53;2.20;99.90
26952;DHT22;14507;52.418;13.398;2024-01-30T00:48:19;2.30;99.90
26952;DHT22;14507;52.418;13.398;2024-01-30T00:50:45;1.90;99.90
26952;DHT22;14507;52.418;13.398;2024-01-30T00:53:11;2.90;99.90
26952;DHT22;14507;52.418;13.398;2024-01-30T00:55:36;2.20;99.90
26952;DHT22;14507;52.418;13.398;2024-01-30T00:58:02;2.00;99.90
26952;DHT22;14507;52.418;13.398;2024-01-30T01:00:28;1.80;99.90
26952;DHT22;14507;52.418;13.398;2024-01-30T01:03:00;2.90;99.90
26952;DHT22;14507;52.418;13.398;2024-01-30T01:05:26;1.70;99.90
26952;DHT22;14507;52.418;13.398;2024-01-30T01:07:52;1.70;99.90
26952;DHT22;14507;52.418;13.398;2024-01-30T01:10:18;1.70;99.90
26952;DHT22;14507;52.418;13.398;2024-01-30T01:12:44;2.70;99.90
26952;DHT22;14507;52.418;13.398;2024-01-30T01:15:10;2.20;99.90
26952;DHT22;14507;52.418;13.398;2024-01-30T01:17:36;2.00;99.90
26952;DHT22;14507;52.418;13.398;2024-01-30T01:20:03;1.90;99.90
26952;DHT22;14507;52.418;13.398;2024-01-30T01:22:31;1.70;99.90
26952;DHT22;14507;52.418;13.398;2024-01-30T01:24:56;1.80;99.90
26952;DHT22;14507;52.418;13.398;2024-01-30T01:27:22;1.80;99.90
26952;DHT22;14507;52.418;13.398;2024-01-30T01:29:48;1.70;99.90
26952;DHT22;14507;52.418;13.398;2024-01-30T01:32:13;2.50;99.90
26952;DHT22;14507;52.418;13.398;2024-01-30T01:34:39;2.20;99.90
26952;DHT22;14507;52.418;13.398;2024-01-30T01:37:04;2.10;99.90
26952;DHT22;14507;52.418;13.398;2024-01-30T01:39:30;1.60;99.90
26952;DHT22;14507;52.418;13.398;2024-01-30T01:41:56;2.10;99.90
26952;DHT22;14507;52.418;13.398;2024-01-30T01:44:21;2.40;99.90
26952;DHT22;14507;52.418;13.398;2024-01-30T01:46:47;1.60;99.90
26952;DHT22;14507;52.418;13.398;2024-01-30T01:49:14;1.60;99.90
26952;DHT22;14507;52.418;13.398;2024-01-30T01:51:41;1.50;99.90
26952;DHT22;14507;52.418;13.398;2024-01-30T01:54:08;1.80;99.90
26952;DHT22;14507;52.418;13.398;2024-01-30T01:56:35;1.60;99.90
26952;DHT22;14507;52.418;13.398;2024-01-30T01:59:05;2.00;99.90
26952;DHT22;14507;52.418;13.398;2024-01-30T02:01:33;2.30;99.90
26952;DHT22;14507;52.418;13.398;2024-01-30T02:03:59;1.70;99.90
26952;DHT22;14507;52.418;13.398;2024-01-30T02:06:26;1.80;99.90
26952;DHT22;14507;52.418;13.398;2024-01-30T02:08:51;1.80;99.90
26952;DHT22;14507;52.418;13.398;2024-01-30T02:11:17;1.60;99.90
26952;DHT22;14507;52.418;13.398;2024-01-30T02:13:43;1.70;99.90
26952;DHT22;14507;52.418;13.398;2024-01-30T02:16:09;2.10;99.90
26952;DHT22;14507;52.418;13.398;2024-01-30T02:18:35;1.80;99.90
26952;DHT22;14507;52.418;13.398;2024-01-30T02:21:07;1.70;99.90
26952;DHT22;14507;52.418;13.398;2024-01-30T02:23:33;1.80;99.90
26952;DHT22;14507;52.418;13.398;2024-01-30T02:25:59;1.90;99.90
26952;DHT22;14507;52.418;13.398;2024-01-30T02:28:25;2.60;99.90
26952;DHT22;14507;52.418;13.398;2024-01-30T02:30:51;1.80;99.90
26952;DHT22;14507;52.418;13.398;2024-01-30T02:33:17;2.00;99.90
26952;DHT22;14507;52.418;13.398;2024-01-30T02:35:43;1.80;99.90
26952;DHT22;14507;52.418;13.398;2024-01-30T02:38:08;2.00;99.90
26952;DHT22;14507;52.418;13.398;2024-01-30T02:40:34;1.80;99.90
26952;DHT22;14507;52.418;13.398;2024-01-30T02:43:01;1.70;99.90
26952;DHT22;14507;52.418;13.398;2024-01-30T02:45:26;1.70;99.90
26952;DHT22;14507;52.418;13.398;2024-01-30T02:47:52;1.50;99.90
26952;DHT22;14507;52.418;13.398;2024-01-30T02:50:18;1.40;99.90
26952;DHT22;14507;52.418;13.398;2024-01-30T02:52:43;1.50;99.90
26952;DHT22;14507;52.418;13.398;2024-01-30T02:55:09;1.30;99.90
26952;DHT22;14507;52.418;13.398;2024-01-30T02:57:35;1.40;99.90
26952;DHT22;14507;52.418;13.398;2024-01-30T03:00:01;1.50;99.90
26952;DHT22;14507;52.418;13.398;2024-01-30T03:02:27;1.50;99.90
26952;DHT22;14507;52.418;13.398;2024-01-30T03:04:52;1.40;99.90
26952;DHT22;14507;52.418;13.398;2024-01-30T03:07:18;1.40;99.90
26952;DHT22;14507;52.418;13.398;2024-01-30T03:09:44;1.50;99.90
26952;DHT22;14507;52.418;13.398;2024-01-30T03:12:10;2.10;99.90
26952;DHT22;14507;52.418;13.398;2024-01-30T03:14:35;1.40;99.90
26952;DHT22;14507;52.418;13.398;2024-01-30T03:17:01;1.40;99.90
26952;DHT22;14507;52.418;13.398;2024-01-30T03:19:27;1.40;99.90
26952;DHT22;14507;52.418;13.398;2024-01-30T03:21:52;2.00;99.90
26952;DHT22;14507;52.418;13.398;2024-01-30T03:24:18;1.30;99.90
26952;DHT22;14507;52.418;13.398;2024-01-30T03:26:44;1.30;99.90
26952;DHT22;14507;52.418;13.398;2024-01-30T03:29:10;1.20;99.90
26952;DHT22;14507;52.418;13.398;2024-01-30T03:31:35;1.40;99.90
26952;DHT22;14507;52.418;13.398;2024-01-30T03:34:01;2.00;99.90
26952;DHT22;14507;52.418;13.398;2024-01-30T03:36:27;1.60;99.90
26952;DHT22;14507;52.418;13.398;2024-01-30T03:38:53;1.40;99.90
26952;DHT22;14507;52.418;13.398;2024-01-30T03:41:19;2.50;99.90
26952;DHT22;14507;52.418;13.398;2024-01-30T03:43:44;1.50;99.90
26952;DHT22;14507;52.418;13.398;2024-01-30T03:46:12;1.50;99.90
26952;DHT22;14507;52.418;13.398;2024-01-30T03:48:37;1.60;99.90
26952;DHT22;14507;52.418;13.398;2024-01-30T03:51:03;1.70;99.90
26952;DHT22;14507;52.418;13.398;2024-01-30T03:53:29;1.40;99.90
26952;DHT22;14507;52.418;13.398;2024-01-30T03:55:55;1.50;99.90
26952;DHT22;14507;52.418;13.398;2024-01-30T03:58:20;1.60;99.90
26952;DHT22;14507;52.418;13.398;2024-01-30T04:00:46;1.60;99.90
26952;DHT22;14507;52.418;13.398;2024-01-30T04:03:12;1.40;99.90
26952;DHT22;14507;52.418;13.398;2024-01-30T04:05:37;1.40;99.90
26952;DHT22;14507;52.418;13.398;2024-01-30T04:08:03;1.50;99.90
26952;DHT22;14507;52.418;13.398;2024-01-30T04:10:29;0.80;99.90
26952;DHT22;14507;52.418;13.398;2024-01-30T04:12:54;2.40;99.90
26952;DHT22;14507;52.418;13.398;2024-01-30T04:15:20;1.40;99.90
26952;DHT22;14507;52.418;13.398;2024-01-30T04:17:46;1.40;99.90
26952;DHT22;14507;52.418;13.398;2024-01-30T04:20:17;2.10;99.90
26952;DHT22;14507;52.418;13.398;2024-01-30T04:22:46;1.70;99.90
26952;DHT22;14507;52.418;13.398;2024-01-30T04:25:15;1.40;99.90
26952;DHT22;14507;52.418;13.398;2024-01-30T04:27:40;1.70;99.90
26952;DHT22;14507;52.418;13.398;2024-01-30T04:30:06;1.50;99.90
26952;DHT22;14507;52.418;13.398;2024-01-30T04:32:32;1.40;99.90
26952;DHT22;14507;52.418;13.398;2024-01-30T04:34:58;1.50;99.90
26952;DHT22;14507;52.418;13.398;2024-01-30T04:37:24;1.40;99.90
26952;DHT22;14507;52.418;13.398;2024-01-30T04:39:50;1.80;99.90
26952;DHT22;14507;52.418;13.398;2024-01-30T04:42:16;2.20;99.90
26952;DHT22;14507;52.418;13.398;2024-01-30T04:44:42;1.90;99.90
26952;DHT22;14507;52.418;13.398;2024-01-30T04:47:08;1.70;99.90
26952;DHT22;14507;52.418;13.398;2024-01-30T04:49:36;1.70;99.90
26952;DHT22;14507;52.418;13.398;2024-01-30T04:52:02;1.70;99.90
26952;DHT22;14507;52.418;13.398;2024-01-30T04:54:27;1.40;99.90
26952;DHT22;14507;52.418;13.398;2024-01-30T04:56:53;1.40;99.90
26952;DHT22;14507;52.418;13.398;2024-01-30T04:59:19;1.70;99.90
26952;DHT22;14507;52.418;13.398;2024-01-30T05:01:44;1.50;99.90
26952;DHT22;14507;52.418;13.398;2024-01-30T05:04:10;1.30;99.90
26952;DHT22;14507;52.418;13.398;2024-01-30T05:06:37;1.40;99.90
26952;DHT22;14507;52.418;13.398;2024-01-30T05:09:02;1.40;99.90
26952;DHT22;14507;52.418;13.398;2024-01-30T05:11:31;1.20;99.90
26952;DHT22;14507;52.418;13.398;2024-01-30T05:13:56;1.30;99.90
26952;DHT22;14507;52.418;13.398;2024-01-30T05:16:22;1.20;99.90
26952;DHT22;14507;52.418;13.398;2024-01-30T05:18:48;1.50;99.90
26952;DHT22;14507;52.418;13.398;2024-01-30T05:21:13;1.50;99.90
26952;DHT22;14507;52.418;13.398;2024-01-30T05:23:39;1.40;99.90
26952;DHT22;14507;52.418;13.398;2024-01-30T05:26:07;1.40;99.90
26952;DHT22;14507;52.418;13.398;2024-01-30T05:28:33;1.30;99.90
26952;DHT22;14507;52.418;13.398;2024-01-30T05:30:58;2.10;99.90
26952;DHT22;14507;52.418;13.398;2024-01-30T05:33:24;1.80;99.90
26952;DHT22;14507;52.418;13.398;2024-01-30T05:35:50;1.90;99.90
26952;DHT22;14507;52.418;13.398;2024-01-30T05:38:16;1.80;99.90
26952;DHT22;14507;52.418;13.398;2024-01-30T05:40:42;1.40;99.90
26952;DHT22;14507;52.418;13.398;2024-01-30T05:43:07;1.60;99.90
26952;DHT22;14507;52.418;13.398;2024-01-30T05:45:33;1.50;99.90
26952;DHT22;14507;52.418;13.398;2024-01-30T05:48:01;1.90;99.90
26952;DHT22;14507;52.418;13.398;2024-01-30T05:50:26;2.10;99.90
26952;DHT22;14507;52.418;13.398;2024-01-30T05:52:52;1.40;99.90
26952;DHT22;14507;52.418;13.398;2024-01-30T05:55:18;1.30;99.90
26952;DHT22;14507;52.418;13.398;2024-01-30T05:57:44;1.20;99.90
26952;DHT22;14507;52.418;13.398;2024-01-30T06:00:10;1.40;99.90
26952;DHT22;14507;52.418;13.398;2024-01-30T06:02:36;1.20;99.90
26952;DHT22;14507;52.418;13.398;2024-01-30T06:05:01;1.70;99.90
26952;DHT22;14507;52.418;13.398;2024-01-30T06:07:27;1.20;99.90
26952;DHT22;14507;52.418;13.398;2024-01-30T06:09:53;1.30;99.90
26952;DHT22;14507;52.418;13.398;2024-01-30T06:12:18;1.50;99.90
26952;DHT22;14507;52.418;13.398;2024-01-30T06:14:44;1.60;99.90
26952;DHT22;14507;52.418;13.398;2024-01-30T06:17:10;1.20;99.90
26952;DHT22;14507;52.418;13.398;2024-01-30T06:19:37;2.00;99.90
26952;DHT22;14507;52.418;13.398;2024-01-30T06:22:04;1.70;99.90
26952;DHT22;14507;52.418;13.398;2024-01-30T06:24:29;1.40;99.90
26952;DHT22;14507;52.418;13.398;2024-01-30T06:26:55;1.30;99.90
26952;DHT22;14507;52.418;13.398;2024-01-30T06:29:21;1.20;99.90
26952;DHT22;14507;52.418;13.398;2024-01-30T06:31:46;2.20;99.90
26952;DHT22;14507;52.418;13.398;2024-01-30T06:34:12;1.30;99.90
26952;DHT22;14507;52.418;13.398;2024-01-30T06:36:38;1.30;99.90
26952;DHT22;14507;52.418;13.398;2024-01-30T06:39:04;1.20;99.90
26952;DHT22;14507;52.418;13.398;2024-01-30T06:41:30;1.40;99.90
26952;DHT22;14507;52.418;13.398;2024-01-30T06:43:56;1.60;99.90
26952;DHT22;14507;52.418;13.398;2024-01-30T06:46:21;1.60;99.90
26952;DHT22;14507;52.418;13.398;2024-01-30T06:48:47;1.40;99.90
26952;DHT22;14507;52.418;13.398;2024-01-30T06:51:13;1.50;99.90
26952;DHT22;14507;52.418;13.398;2024-01-30T06:53:38;1.30;99.90
26952;DHT22;14507;52.418;13.398;2024-01-30T06:56:05;1.80;99.90
26952;DHT22;14507;52.418;13.398;2024-01-30T06:58:30;1.40;99.90
26952;DHT22;14507;52.418;13.398;2024-01-30T07:00:56;2.20;99.90
26952;DHT22;14507;52.418;13.398;2024-01-30T07:03:22;1.90;99.90
26952;DHT22;14507;52.418;13.398;2024-01-30T07:05:47;2.60;99.90
26952;DHT22;14507;52.418;13.398;2024-01-30T07:08:13;2.40;99.90
26952;DHT22;14507;52.418;13.398;2024-01-30T07:10:40;1.90;99.90
26952;DHT22;14507;52.418;13.398;2024-01-30T07:13:05;2.50;99.90
26952;DHT22;14507;52.418;13.398;2024-01-30T07:15:31;2.30;99.90
26952;DHT22;14507;52.418;13.398;2024-01-30T07:17:57;2.40;99.90
26952;DHT22;14507;52.418;13.398;2024-01-30T07:20:22;2.00;99.90
26952;DHT22;14507;52.418;13.398;2024-01-30T07:22:49;1.80;99.90
26952;DHT22;14507;52.418;13.398;2024-01-30T07:25:14;2.10;99.90
26952;DHT22;14507;52.418;13.398;2024-01-30T07:27:40;1.80;99.90
26952;DHT22;14507;52.418;13.398;2024-01-30T07:30:06;2.80;99.90
26952;DHT22;14507;52.418;13.398;2024-01-30T07:32:32;1.90;99.90
26952;DHT22;14507;52.418;13.398;2024-01-30T07:34:58;1.90;99.90
26952;DHT22;14507;52.418;13.398;2024-01-30T07:37:23;2.20;99.90
26952;DHT22;14507;52.418;13.398;2024-01-30T07:39:49;2.20;99.90
26952;DHT22;14507;52.418;13.398;2024-01-30T07:42:15;2.50;99.90
26952;DHT22;14507;52.418;13.398;2024-01-30T07:44:41;2.10;99.90
26952;DHT22;14507;52.418;13.398;2024-01-30T07:47:07;2.10;99.90
26952;DHT22;14507;52.418;13.398;2024-01-30T07:49:33;2.70;99.90
26952;DHT22;14507;52.418;13.398;2024-01-30T07:52:01;2.30;99.90
26952;DHT22;14507;52.418;13.398;2024-01-30T07:54:30;2.70;99.90
26952;DHT22;14507;52.418;13.398;2024-01-30T07:56:59;2.40;99.90
26952;DHT22;14507;52.418;13.398;2024-01-30T07:59:25;2.60;99.90
26952;DHT22;14507;52.418;13.398;2024-01-30T08:01:51;2.20;99.90
26952;DHT22;14507;52.418;13.398;2024-01-30T08:04:16;2.50;99.90
26952;DHT22;14507;52.418;13.398;2024-01-30T08:06:43;2.80;99.90
26952;DHT22;14507;52.418;13.398;2024-01-30T08:09:08;2.60;99.90
26952;DHT22;14507;52.418;13.398;2024-01-30T08:11:34;2.60;99.90
26952;DHT22;14507;52.418;13.398;2024-01-30T08:13:59;2.80;99.90
26952;DHT22;14507;52.418;13.398;2024-01-30T08:16:25;3.10;99.90
26952;DHT22;14507;52.418;13.398;2024-01-30T08:18:51;3.60;99.90
26952;DHT22;14507;52.418;13.398;2024-01-30T08:21:18;3.60;99.90
26952;DHT22;14507;52.418;13.398;2024-01-30T08:23:44;3.30;99.90
26952;DHT22;14507;52.418;13.398;2024-01-30T08:26:09;3.60;99.90
26952;DHT22;14507;52.418;13.398;2024-01-30T08:28:35;3.20;99.90
26952;DHT22;14507;52.418;13.398;2024-01-30T08:31:01;3.40;99.90
26952;DHT22;14507;52.418;13.398;2024-01-30T08:33:26;3.50;99.90
26952;DHT22;14507;52.418;13.398;2024-01-30T08:35:52;3.90;99.90
26952;DHT22;14507;52.418;13.398;2024-01-30T08:38:18;3.60;99.90
26952;DHT22;14507;52.418;13.398;2024-01-30T08:40:43;3.70;99.90
26952;DHT22;14507;52.418;13.398;2024-01-30T08:43:09;4.30;99.90
26952;DHT22;14507;52.418;13.398;2024-01-30T08:45:35;3.90;99.90
26952;DHT22;14507;52.418;13.398;2024-01-30T08:48:01;4.10;99.90
26952;DHT22;14507;52.418;13.398;2024-01-30T08:50:26;4.20;99.90
26952;DHT22;14507;52.418;13.398;2024-01-30T08:52:52;4.40;99.90
26952;DHT22;14507;52.418;13.398;2024-01-30T08:55:18;4.60;99.90
26952;DHT22;14507;52.418;13.398;2024-01-30T08:57:43;5.00;99.90
26952;DHT22;14507;52.418;13.398;2024-01-30T09:00:09;5.30;99.90
26952;DHT22;14507;52.418;13.398;2024-01-30T09:02:35;5.50;99.90
26952;DHT22;14507;52.418;13.398;2024-01-30T09:05:01;5.80;99.90
26952;DHT22;14507;52.418;13.398;2024-01-30T09:07:27;6.10;99.90
26952;DHT22;14507;52.418;13.398;2024-01-30T09:09:53;6.30;99.90
26952;DHT22;14507;52.418;13.398;2024-01-30T09:12:18;6.50;99.90
26952;DHT22;14507;52.418;13.398;2024-01-30T09:14:44;6.80;99.90
26952;DHT22;14507;52.418;13.398;2024-01-30T09:17:10;6.80;99.90
26952;DHT22;14507;52.418;13.398;2024-01-30T09:19:36;7.00;99.90
26952;DHT22;14507;52.418;13.398;2024-01-30T09:22:02;6.70;99.90
26952;DHT22;14507;52.418;13.398;2024-01-30T09:24:27;6.60;99.90
26952;DHT22;14507;52.418;13.398;2024-01-30T09:26:53;6.50;99.90
26952;DHT22;14507;52.418;13.398;2024-01-30T09:29:19;6.30;99.90
26952;DHT22;14507;52.418;13.398;2024-01-30T09:31:47;6.40;99.90
26952;DHT22;14507;52.418;13.398;2024-01-30T09:34:13;6.40;99.90
26952;DHT22;14507;52.418;13.398;2024-01-30T09:36:39;6.20;99.90
26952;DHT22;14507;52.418;13.398;2024-01-30T09:39:05;6.10;99.90
26952;DHT22;14507;52.418;13.398;2024-01-30T09:41:43;6.20;99.90
26952;DHT22;14507;52.418;13.398;2024-01-30T09:44:10;6.20;99.90
26952;DHT22;14507;52.418;13.398;2024-01-30T09:46:37;6.10;99.90
26952;DHT22;14507;52.418;13.398;2024-01-30T09:49:03;6.20;99.90
26952;DHT22;14507;52.418;13.398;2024-01-30T09:51:30;6.10;99.90
26952;DHT22;14507;52.418;13.398;2024-01-30T09:53:56;6.10;99.90
26952;DHT22;14507;52.418;13.398;2024-01-30T09:56:22;6.10;99.90
26952;DHT22;14507;52.418;13.398;2024-01-30T09:58:47;6.20;99.90
26952;DHT22;14507;52.418;13.398;2024-01-30T10:01:17;6.40;99.90
26952;DHT22;14507;52.418;13.398;2024-01-30T10:03:44;6.40;99.90
26952;DHT22;14507;52.418;13.398;2024-01-30T10:06:12;6.50;99.90
26952;DHT22;14507;52.418;13.398;2024-01-30T10:08:38;6.40;99.90
26952;DHT22;14507;52.418;13.398;2024-01-30T10:11:03;6.60;99.90
26952;DHT22;14507;52.418;13.398;2024-01-30T10:13:29;6.40;99.90
26952;DHT22;14507;52.418;13.398;2024-01-30T10:15:55;6.40;99.90
26952;DHT22;14507;52.418;13.398;2024-01-30T10:18:24;6.60;99.90
26952;DHT22;14507;52.418;13.398;2024-01-30T10:20:51;6.70;99.90
26952;DHT22;14507;52.418;13.398;2024-01-30T10:23:18;7.10;99.90
26952;DHT22;14507;52.418;13.398;2024-01-30T10:25:44;6.80;99.90
26952;DHT22;14507;52.418;13.398;2024-01-30T10:28:11;6.90;99.90
26952;DHT22;14507;52.418;13.398;2024-01-30T10:30:36;7.20;99.90
26952;DHT22;14507;52.418;13.398;2024-01-30T10:33:02;7.20;99.90
26952;DHT22;14507;52.418;13.398;2024-01-30T10:35:28;7.10;99.90
26952;DHT22;14507;52.418;13.398;2024-01-30T10:37:57;7.20;99.90
26952;DHT22;14507;52.418;13.398;2024-01-30T10:40:30;7.10;99.90
26952;DHT22;14507;52.418;13.398;2024-01-30T10:42:56;7.10;99.90
26952;DHT22;14507;52.418;13.398;2024-01-30T10:45:22;7.20;99.90
26952;DHT22;14507;52.418;13.398;2024-01-30T10:47:54;7.20;99.90
26952;DHT22;14507;52.418;13.398;2024-01-30T10:50:24;7.30;99.90
26952;DHT22;14507;52.418;13.398;2024-01-30T10:52:50;7.30;99.90
26952;DHT22;14507;52.418;13.398;2024-01-30T10:55:16;7.40;99.90
26952;DHT22;14507;52.418;13.398;2024-01-30T10:57:43;7.40;99.90
26952;DHT22;14507;52.418;13.398;2024-01-30T11:00:10;7.40;99.90
26952;DHT22;14507;52.418;13.398;2024-01-30T11:02:40;7.40;99.90
26952;DHT22;14507;52.418;13.398;2024-01-30T11:05:07;7.40;99.90
26952;DHT22;14507;52.418;13.398;2024-01-30T11:07:34;7.40;99.90
26952;DHT22;14507;52.418;13.398;2024-01-30T11:10:03;7.50;99.90
26952;DHT22;14507;52.418;13.398;2024-01-30T11:12:30;7.50;99.90
26952;DHT22;14507;52.418;13.398;2024-01-30T11:15:06;7.50;99.90
26952;DHT22;14507;52.418;13.398;2024-01-30T11:20:11;7.50;99.90
26952;DHT22;14507;52.418;13.398;2024-01-30T11:22:37;7.50;99.90
26952;DHT22;14507;52.418;13.398;2024-01-30T11:25:03;7.60;99.90
26952;DHT22;14507;52.418;13.398;2024-01-30T11:27:30;7.60;99.90
26952;DHT22;14507;52.418;13.398;2024-01-30T11:30:02;7.60;99.90
26952;DHT22;14507;52.418;13.398;2024-01-30T11:32:28;7.60;99.90
26952;DHT22;14507;52.418;13.398;2024-01-30T11:34:54;7.80;99.90
26952;DHT22;14507;52.418;13.398;2024-01-30T11:37:21;7.60;99.90
26952;DHT22;14507;52.418;13.398;2024-01-30T11:39:51;7.60;99.90
26952;DHT22;14507;52.418;13.398;2024-01-30T11:42:17;7.70;99.90
26952;DHT22;14507;52.418;13.398;2024-01-30T11:44:47;7.80;99.90
26952;DHT22;14507;52.418;13.398;2024-01-30T11:47:13;7.80;99.90
26952;DHT22;14507;52.418;13.398;2024-01-30T11:49:39;7.80;99.90
26952;DHT22;14507;52.418;13.398;2024-01-30T11:52:05;7.80;99.90
26952;DHT22;14507;52.418;13.398;2024-01-30T11:54:31;8.00;99.90
26952;DHT22;14507;52.418;13.398;2024-01-30T11:56:57;7.90;99.90
26952;DHT22;14507;52.418;13.398;2024-01-30T11:59:22;8.10;99.90
26952;DHT22;14507;52.418;13.398;2024-01-30T12:01:48;8.10;99.90
26952;DHT22;14507;52.418;13.398;2024-01-30T12:04:14;8.20;99.90
26952;DHT22;14507;52.418;13.398;2024-01-30T12:06:40;8.20;99.90
26952;DHT22;14507;52.418;13.398;2024-01-30T12:09:06;8.30;99.90
26952;DHT22;14507;52.418;13.398;2024-01-30T12:11:46;8.30;99.90
26952;DHT22;14507;52.418;13.398;2024-01-30T12:14:12;8.30;99.90
26952;DHT22;14507;52.418;13.398;2024-01-30T12:16:38;8.40;99.90
26952;DHT22;14507;52.418;13.398;2024-01-30T12:19:04;8.50;99.90
26952;DHT22;14507;52.418;13.398;2024-01-30T12:21:30;8.30;99.90
26952;DHT22;14507;52.418;13.398;2024-01-30T12:23:59;8.30;99.90
26952;DHT22;14507;52.418;13.398;2024-01-30T12:26:25;8.90;99.90
26952;DHT22;14507;52.418;13.398;2024-01-30T12:28:54;8.30;99.90
26952;DHT22;14507;52.418;13.398;2024-01-30T12:31:32;8.30;99.90
26952;DHT22;14507;52.418;13.398;2024-01-30T12:33:59;8.30;99.90
26952;DHT22;14507;52.418;13.398;2024-01-30T12:36:25;8.50;99.90
26952;DHT22;14507;52.418;13.398;2024-01-30T12:38:51;8.40;99.90
26952;DHT22;14507;52.418;13.398;2024-01-30T12:41:17;8.50;99.90
26952;DHT22;14507;52.418;13.398;2024-01-30T12:43:43;8.50;99.90
26952;DHT22;14507;52.418;13.398;2024-01-30T12:46:09;8.50;99.90
26952;DHT22;14507;52.418;13.398;2024-01-30T12:48:35;8.50;99.90
26952;DHT22;14507;52.418;13.398;2024-01-30T12:51:01;8.50;99.90
26952;DHT22;14507;52.418;13.398;2024-01-30T12:53:26;8.60;99.90
26952;DHT22;14507;52.418;13.398;2024-01-30T12:55:52;8.60;99.90
26952;DHT22;14507;52.418;13.398;2024-01-30T12:58:19;8.60;99.90
26952;DHT22;14507;52.418;13.398;2024-01-30T13:00:45;8.80;99.90
26952;DHT22;14507;52.418;13.398;2024-01-30T13:03:11;8.60;99.90
26952;DHT22;14507;52.418;13.398;2024-01-30T13:05:37;8.60;99.90
26952;DHT22;14507;52.418;13.398;2024-01-30T13:08:02;8.70;99.90
26952;DHT22;14507;52.418;13.398;2024-01-30T13:10:28;8.70;99.90
26952;DHT22;14507;52.418;13.398;2024-01-30T13:12:54;8.70;99.90
26952;DHT22;14507;52.418;13.398;2024-01-30T13:15:20;8.70;99.90
26952;DHT22;14507;52.418;13.398;2024-01-30T13:17:45;8.70;99.90
26952;DHT22;14507;52.418;13.398;2024-01-30T13:20:14;8.70;99.90
26952;DHT22;14507;52.418;13.398;2024-01-30T13:22:44;8.70;99.90
26952;DHT22;14507;52.418;13.398;2024-01-30T13:25:10;8.70;99.90
26952;DHT22;14507;52.418;13.398;2024-01-30T13:27:37;8.70;99.90
26952;DHT22;14507;52.418;13.398;2024-01-30T13:30:03;8.70;99.90
26952;DHT22;14507;52.418;13.398;2024-01-30T13:32:29;8.70;99.90
26952;DHT22;14507;52.418;13.398;2024-01-30T13:34:54;8.80;99.90
26952;DHT22;14507;52.418;13.398;2024-01-30T13:37:21;8.70;99.90
26952;DHT22;14507;52.418;13.398;2024-01-30T13:39:47;8.80;99.90
26952;DHT22;14507;52.418;13.398;2024-01-30T13:42:12;8.80;99.90
26952;DHT22;14507;52.418;13.398;2024-01-30T13:44:38;8.80;99.90
26952;DHT22;14507;52.418;13.398;2024-01-30T13:47:03;8.70;99.90
26952;DHT22;14507;52.418;13.398;2024-01-30T13:49:29;8.70;99.90
26952;DHT22;14507;52.418;13.398;2024-01-30T13:51:55;8.80;99.90
26952;DHT22;14507;52.418;13.398;2024-01-30T13:54:20;8.80;99.90
26952;DHT22;14507;52.418;13.398;2024-01-30T13:56:46;8.80;99.90
26952;DHT22;14507;52.418;13.398;2024-01-30T13:59:11;8.80;99.90
26952;DHT22;14507;52.418;13.398;2024-01-30T14:01:37;8.80;99.90
26952;DHT22;14507;52.418;13.398;2024-01-30T14:04:03;8.80;99.90
26952;DHT22;14507;52.418;13.398;2024-01-30T14:06:28;8.70;99.90
26952;DHT22;14507;52.418;13.398;2024-01-30T14:08:54;8.70;99.90
26952;DHT22;14507;52.418;13.398;2024-01-30T14:11:20;8.70;99.90
26952;DHT22;14507;52.418;13.398;2024-01-30T14:13:46;8.70;99.90
26952;DHT22;14507;52.418;13.398;2024-01-30T14:16:12;8.70;99.90
26952;DHT22;14507;52.418;13.398;2024-01-30T14:18:37;8.70;99.90
26952;DHT22;14507;52.418;13.398;2024-01-30T14:21:03;8.70;99.90
26952;DHT22;14507;52.418;13.398;2024-01-30T14:23:29;8.70;99.90
26952;DHT22;14507;52.418;13.398;2024-01-30T14:25:54;8.70;99.90
26952;DHT22;14507;52.418;13.398;2024-01-30T14:28:20;8.60;99.90
26952;DHT22;14507;52.418;13.398;2024-01-30T14:30:45;8.70;99.90
26952;DHT22;14507;52.418;13.398;2024-01-30T14:33:11;8.60;99.90
26952;DHT22;14507;52.418;13.398;2024-01-30T14:35:37;8.60;99.90
26952;DHT22;14507;52.418;13.398;2024-01-30T14:38:03;8.70;99.90
26952;DHT22;14507;52.418;13.398;2024-01-30T14:40:30;8.70;99.90
26952;DHT22;14507;52.418;13.398;2024-01-30T14:42:56;8.70;99.90
26952;DHT22;14507;52.418;13.398;2024-01-30T14:45:22;8.60;99.90
26952;DHT22;14507;52.418;13.398;2024-01-30T14:47:47;8.60;99.90
26952;DHT22;14507;52.418;13.398;2024-01-30T14:50:13;8.70;99.90
26952;DHT22;14507;52.418;13.398;2024-01-30T14:52:39;8.60;99.90
26952;DHT22;14507;52.418;13.398;2024-01-30T14:55:05;8.60;99.90
26952;DHT22;14507;52.418;13.398;2024-01-30T14:57:31;8.60;99.90
26952;DHT22;14507;52.418;13.398;2024-01-30T14:59:57;8.70;99.90
26952;DHT22;14507;52.418;13.398;2024-01-30T15:02:23;8.50;99.90
26952;DHT22;14507;52.418;13.398;2024-01-30T15:04:48;8.50;99.90
26952;DHT22;14507;52.418;13.398;2024-01-30T15:07:14;8.50;99.90
26952;DHT22;14507;52.418;13.398;2024-01-30T15:09:39;8.40;99.90
26952;DHT22;14507;52.418;13.398;2024-01-30T15:12:05;8.40;99.90
26952;DHT22;14507;52.418;13.398;2024-01-30T15:14:31;8.30;99.90
26952;DHT22;14507;52.418;13.398;2024-01-30T15:16:56;8.30;99.90
26952;DHT22;14507;52.418;13.398;2024-01-30T15:19:22;8.20;99.90
26952;DHT22;14507;52.418;13.398;2024-01-30T15:21:48;8.20;99.90
26952;DHT22;14507;52.418;13.398;2024-01-30T15:24:13;8.20;99.90
26952;DHT22;14507;52.418;13.398;2024-01-30T15:26:42;8.30;99.90